createdAt,value
2023-01-10T00:00:05.118Z,1002.70
2023-01-10T00:01:05.077Z,1002.74
2023-01-10T00:02:05.073Z,1002.72
2023-01-10T00:03:05.088Z,1002.71
2023-01-10T00:04:05.070Z,1002.77
2023-01-10T00:05:05.095Z,1002.75
2023-01-10T00:06:05.073Z,1002.75
2023-01-10T00:07:05.061Z,1002.75
2023-01-10T00:08:05.068Z,1002.75
2023-01-10T00:09:05.056Z,1002.76
2023-01-10T00:10:05.055Z,1002.77
2023-01-10T00:11:05.051Z,1002.79
2023-01-10T00:12:05.045Z,1002.75
2023-01-10T00:13:05.043Z,1002.76
2023-01-10T00:14:05.045Z,1002.76
2023-01-10T00:15:05.043Z,1002.75
2023-01-10T00:16:05.134Z,1002.75
2023-01-10T00:17:05.031Z,1002.73
2023-01-10T00:18:05.031Z,1002.73
2023-01-10T00:19:05.026Z,1002.77
2023-01-10T00:20:05.020Z,1002.76
2023-01-10T00:21:05.040Z,1002.79
2023-01-10T00:22:05.013Z,1002.77
2023-01-10T00:23:05.017Z,1002.82
2023-01-10T00:24:05.008Z,1002.78
2023-01-10T00:25:05.077Z,1002.77
2023-01-10T00:26:05.002Z,1002.80
2023-01-10T00:27:05.005Z,1002.78
2023-01-10T00:28:04.998Z,1002.84
2023-01-10T00:29:05.004Z,1002.74
2023-01-10T00:30:04.990Z,1002.77
2023-01-10T00:31:05.041Z,1002.79
2023-01-10T00:32:04.999Z,1002.80
2023-01-10T00:33:04.989Z,1002.82
2023-01-10T00:34:04.981Z,1002.82
2023-01-10T00:35:04.988Z,1002.84
2023-01-10T00:36:04.969Z,1002.87
2023-01-10T00:37:04.998Z,1002.87
2023-01-10T00:38:04.982Z,1002.88
2023-01-10T00:39:04.977Z,1002.86
2023-01-10T00:40:04.964Z,1002.86
2023-01-10T00:41:04.967Z,1002.82
2023-01-10T00:42:04.960Z,1002.83
2023-01-10T00:43:04.957Z,1002.88
2023-01-10T00:44:04.956Z,1002.85
2023-01-10T00:45:04.951Z,1002.93
2023-01-10T00:46:05.033Z,1002.94
2023-01-10T00:47:04.945Z,1002.93
2023-01-10T00:48:04.936Z,1002.96
2023-01-10T00:49:04.932Z,1003.02
2023-01-10T00:50:04.940Z,1003.01
2023-01-10T00:51:04.931Z,1003.04
2023-01-10T00:52:04.924Z,1003.02
2023-01-10T00:53:04.950Z,1003.09
2023-01-10T00:54:04.933Z,1003.07
2023-01-10T00:55:04.920Z,1003.08
2023-01-10T00:56:04.916Z,1003.08
2023-01-10T00:57:04.921Z,1003.13
2023-01-10T00:58:04.907Z,1003.16
2023-01-10T00:59:04.928Z,1003.14
2023-01-10T01:00:04.907Z,1003.15
2023-01-10T01:01:04.971Z,1003.15
2023-01-10T01:02:04.923Z,1003.17
2023-01-10T01:03:04.923Z,1003.22
2023-01-10T01:04:04.895Z,1003.25
2023-01-10T01:05:04.897Z,1003.22
2023-01-10T01:06:04.890Z,1003.30
2023-01-10T01:07:04.891Z,1003.30
2023-01-10T01:08:04.884Z,1003.37
2023-01-10T01:09:04.911Z,1003.39
2023-01-10T01:10:04.878Z,1003.39
2023-01-10T01:11:04.883Z,1003.44
2023-01-10T01:12:04.869Z,1003.46
2023-01-10T01:13:04.869Z,1003.46
2023-01-10T01:14:04.867Z,1003.50
2023-01-10T01:15:04.865Z,1003.55
2023-01-10T01:16:04.900Z,1003.63
2023-01-10T01:17:04.867Z,1003.71
2023-01-10T01:18:04.861Z,1003.63
2023-01-10T01:19:04.857Z,1003.65
2023-01-10T01:20:04.852Z,1003.70
2023-01-10T01:21:04.843Z,1003.75
2023-01-10T01:22:04.846Z,1003.75
2023-01-10T01:23:04.845Z,1003.77
2023-01-10T01:24:04.836Z,1003.80
2023-01-10T01:25:04.860Z,1003.81
2023-01-10T01:26:04.829Z,1003.81
2023-01-10T01:27:04.834Z,1003.84
2023-01-10T01:28:04.821Z,1003.82
2023-01-10T01:29:04.824Z,1003.84
2023-01-10T01:30:04.821Z,1003.90
2023-01-10T01:31:04.868Z,1003.86
2023-01-10T01:32:04.813Z,1003.88
2023-01-10T01:33:04.817Z,1003.93
2023-01-10T01:34:04.803Z,1003.93
2023-01-10T01:35:04.807Z,1003.93
2023-01-10T01:36:04.802Z,1003.99
2023-01-10T01:37:04.809Z,1004.04
2023-01-10T01:38:04.795Z,1004.01
2023-01-10T01:39:04.799Z,1004.08
2023-01-10T01:40:04.789Z,1004.04
2023-01-10T01:41:04.810Z,1004.08
2023-01-10T01:42:04.784Z,1004.12
2023-01-10T01:43:04.782Z,1004.14
2023-01-10T01:44:04.778Z,1004.19
2023-01-10T01:45:04.780Z,1004.23
2023-01-10T01:46:04.820Z,1004.19
2023-01-10T01:47:04.779Z,1004.18
2023-01-10T01:48:04.764Z,1004.26
2023-01-10T01:49:04.771Z,1004.23
2023-01-10T01:50:04.762Z,1004.31
2023-01-10T01:51:04.773Z,1004.29
2023-01-10T01:52:04.765Z,1004.28
2023-01-10T01:53:04.767Z,1004.32
2023-01-10T01:54:04.753Z,1004.31
2023-01-10T01:55:04.754Z,1004.33
2023-01-10T01:56:04.750Z,1004.38
2023-01-10T01:57:04.765Z,1004.39
2023-01-10T01:58:04.737Z,1004.40
2023-01-10T01:59:04.742Z,1004.46
2023-01-10T02:00:04.732Z,1004.49
2023-01-10T02:01:04.761Z,1004.46
2023-01-10T02:02:04.791Z,1004.48
2023-01-10T02:03:04.746Z,1004.53
2023-01-10T02:04:04.760Z,1004.53
2023-01-10T02:05:04.724Z,1004.55
2023-01-10T02:06:04.725Z,1004.55
2023-01-10T02:07:04.726Z,1004.50
2023-01-10T02:08:04.710Z,1004.52
2023-01-10T02:09:04.726Z,1004.51
2023-01-10T02:10:04.710Z,1004.54
2023-01-10T02:11:04.755Z,1004.51
2023-01-10T02:12:04.703Z,1004.50
2023-01-10T02:13:04.718Z,1004.51
2023-01-10T02:14:04.698Z,1004.54
2023-01-10T02:15:04.749Z,1004.62
2023-01-10T02:16:04.745Z,1004.59
2023-01-10T02:17:04.693Z,1004.62
2023-01-10T02:18:04.680Z,1004.63
2023-01-10T02:19:04.678Z,1004.65
2023-01-10T02:20:04.681Z,1004.63
2023-01-10T02:21:04.694Z,1004.64
2023-01-10T02:22:04.666Z,1004.66
2023-01-10T02:23:04.686Z,1004.68
2023-01-10T02:24:04.660Z,1004.66
2023-01-10T02:25:04.668Z,1004.66
2023-01-10T02:26:04.661Z,1004.74
2023-01-10T02:27:04.660Z,1004.77
2023-01-10T02:28:04.654Z,1004.78
2023-01-10T02:29:04.674Z,1004.80
2023-01-10T02:30:04.660Z,1004.78
2023-01-10T02:31:04.690Z,1004.81
2023-01-10T02:32:04.640Z,1004.80
2023-01-10T02:33:05.732Z,1004.82
2023-01-10T02:34:04.653Z,1004.84
2023-01-10T02:35:04.761Z,1004.82
2023-01-10T02:36:04.630Z,1004.87
2023-01-10T02:37:04.627Z,1004.84
2023-01-10T02:38:04.624Z,1004.91
2023-01-10T02:39:04.622Z,1004.91
2023-01-10T02:40:04.619Z,1004.94
2023-01-10T02:41:04.619Z,1004.94
2023-01-10T02:42:04.618Z,1004.93
2023-01-10T02:43:04.613Z,1004.96
2023-01-10T02:44:04.609Z,1004.92
2023-01-10T02:45:04.630Z,1004.90
2023-01-10T02:46:04.667Z,1004.91
2023-01-10T02:47:04.612Z,1004.88
2023-01-10T02:48:04.596Z,1004.90
2023-01-10T02:49:04.597Z,1004.93
2023-01-10T02:50:04.590Z,1004.94
2023-01-10T02:51:04.592Z,1004.96
2023-01-10T02:52:04.580Z,1004.94
2023-01-10T02:53:04.588Z,1004.96
2023-01-10T02:54:04.575Z,1004.98
2023-01-10T02:55:04.577Z,1005.02
2023-01-10T02:56:04.571Z,1004.99
2023-01-10T02:57:04.572Z,1005.05
2023-01-10T02:58:04.570Z,1005.05
2023-01-10T02:59:04.562Z,1005.11
2023-01-10T03:00:04.563Z,1005.15
2023-01-10T03:01:04.595Z,1005.19
2023-01-10T03:02:04.657Z,1005.22
2023-01-10T03:03:04.553Z,1005.22
2023-01-10T03:04:04.544Z,1005.19
2023-01-10T03:05:04.631Z,1005.27
2023-01-10T03:06:04.544Z,1005.23
2023-01-10T03:07:04.541Z,1005.25
2023-01-10T03:08:04.541Z,1005.26
2023-01-10T03:09:04.541Z,1005.27
2023-01-10T03:10:04.540Z,1005.30
2023-01-10T03:11:04.534Z,1005.34
2023-01-10T03:12:04.527Z,1005.35
2023-01-10T03:13:04.523Z,1005.37
2023-01-10T03:14:04.519Z,1005.38
2023-01-10T03:15:04.518Z,1005.41
2023-01-10T03:16:04.551Z,1005.39
2023-01-10T03:17:04.988Z,1005.40
2023-01-10T03:18:04.509Z,1005.42
2023-01-10T03:19:04.506Z,1005.44
2023-01-10T03:20:04.506Z,1005.53
2023-01-10T03:21:04.507Z,1005.47
2023-01-10T03:22:04.521Z,1005.53
2023-01-10T03:23:04.504Z,1005.55
2023-01-10T03:24:04.492Z,1005.55
2023-01-10T03:25:04.489Z,1005.58
2023-01-10T03:26:04.486Z,1005.59
2023-01-10T03:27:04.495Z,1005.63
2023-01-10T03:28:04.478Z,1005.59
2023-01-10T03:29:04.478Z,1005.62
2023-01-10T03:30:04.477Z,1005.60
2023-01-10T03:31:04.524Z,1005.62
2023-01-10T03:32:04.467Z,1005.68
2023-01-10T03:33:04.483Z,1005.71
2023-01-10T03:34:04.465Z,1005.66
2023-01-10T03:35:04.471Z,1005.66
2023-01-10T03:36:04.457Z,1005.72
2023-01-10T03:37:04.457Z,1005.78
2023-01-10T03:38:04.448Z,1005.80
2023-01-10T03:39:04.452Z,1005.81
2023-01-10T03:40:04.444Z,1005.85
2023-01-10T03:41:04.451Z,1005.84
2023-01-10T03:42:04.439Z,1005.87
2023-01-10T03:43:04.447Z,1005.86
2023-01-10T03:44:04.446Z,1005.87
2023-01-10T03:45:04.429Z,1005.90
2023-01-10T03:46:04.436Z,1005.88
2023-01-10T03:47:04.430Z,1005.90
2023-01-10T03:48:04.431Z,1005.95
2023-01-10T03:49:04.446Z,1005.95
2023-01-10T03:50:04.420Z,1005.97
2023-01-10T03:51:04.421Z,1005.96
2023-01-10T03:52:04.414Z,1006.00
2023-01-10T03:53:04.429Z,1005.99
2023-01-10T03:54:04.407Z,1006.03
2023-01-10T03:55:04.403Z,1006.07
2023-01-10T03:56:04.412Z,1006.11
2023-01-10T03:57:04.400Z,1006.10
2023-01-10T03:58:04.398Z,1006.14
2023-01-10T03:59:04.390Z,1006.16
2023-01-10T04:00:04.392Z,1006.16
2023-01-10T04:01:04.510Z,1006.24
2023-01-10T04:02:04.573Z,1006.23
2023-01-10T04:03:04.397Z,1006.28
2023-01-10T04:04:04.793Z,1006.32
2023-01-10T04:05:04.403Z,1006.38
2023-01-10T04:06:04.381Z,1006.37
2023-01-10T04:07:04.374Z,1006.40
2023-01-10T04:08:04.367Z,1006.43
2023-01-10T04:09:04.360Z,1006.45
2023-01-10T04:10:04.365Z,1006.49
2023-01-10T04:11:04.369Z,1006.53
2023-01-10T04:12:04.359Z,1006.53
2023-01-10T04:13:04.350Z,1006.57
2023-01-10T04:14:04.364Z,1006.60
2023-01-10T04:15:04.674Z,1006.64
2023-01-10T04:16:04.383Z,1006.65
2023-01-10T04:17:04.338Z,1006.66
2023-01-10T04:18:04.340Z,1006.70
2023-01-10T04:19:04.334Z,1006.76
2023-01-10T04:20:04.332Z,1006.78
2023-01-10T04:21:04.352Z,1006.79
2023-01-10T04:22:04.328Z,1006.80
2023-01-10T04:23:04.326Z,1006.82
2023-01-10T04:24:04.319Z,1006.85
2023-01-10T04:25:04.316Z,1006.82
2023-01-10T04:26:04.317Z,1006.89
2023-01-10T04:27:04.309Z,1006.89
2023-01-10T04:28:04.310Z,1006.92
2023-01-10T04:29:04.306Z,1006.93
2023-01-10T04:30:04.308Z,1006.96
2023-01-10T04:31:04.310Z,1006.99
2023-01-10T04:32:04.302Z,1006.99
2023-01-10T04:33:04.293Z,1007.02
2023-01-10T04:34:04.294Z,1007.07
2023-01-10T04:35:04.286Z,1007.08
2023-01-10T04:36:04.291Z,1007.11
2023-01-10T04:37:04.300Z,1007.14
2023-01-10T04:38:04.285Z,1007.14
2023-01-10T04:39:04.283Z,1007.23
2023-01-10T04:40:04.278Z,1007.25
2023-01-10T04:41:04.269Z,1007.22
2023-01-10T04:42:04.277Z,1007.25
2023-01-10T04:43:04.265Z,1007.32
2023-01-10T04:44:04.274Z,1007.31
2023-01-10T04:45:04.263Z,1007.26
2023-01-10T04:46:04.327Z,1007.32
2023-01-10T04:47:04.266Z,1007.33
2023-01-10T04:48:04.264Z,1007.33
2023-01-10T04:49:04.262Z,1007.40
2023-01-10T04:50:04.250Z,1007.37
2023-01-10T04:51:04.247Z,1007.38
2023-01-10T04:52:04.244Z,1007.45
2023-01-10T04:53:04.261Z,1007.42
2023-01-10T04:54:04.344Z,1007.49
2023-01-10T04:55:04.237Z,1007.52
2023-01-10T04:56:04.241Z,1007.54
2023-01-10T04:57:04.228Z,1007.54
2023-01-10T04:58:04.232Z,1007.58
2023-01-10T04:59:04.221Z,1007.61
2023-01-10T05:00:04.304Z,1007.61
2023-01-10T05:01:04.250Z,1007.62
2023-01-10T05:02:04.302Z,1007.65
2023-01-10T05:03:04.448Z,1007.61
2023-01-10T05:04:04.209Z,1007.67
2023-01-10T05:05:04.331Z,1007.70
2023-01-10T05:06:04.209Z,1007.75
2023-01-10T05:07:04.198Z,1007.70
2023-01-10T05:08:04.204Z,1007.75
2023-01-10T05:09:04.210Z,1007.78
2023-01-10T05:10:04.189Z,1007.82
2023-01-10T05:11:04.191Z,1007.84
2023-01-10T05:12:04.188Z,1007.85
2023-01-10T05:13:04.208Z,1007.87
2023-01-10T05:14:04.186Z,1007.91
2023-01-10T05:15:04.183Z,1007.98
2023-01-10T05:16:04.178Z,1007.98
2023-01-10T05:17:04.181Z,1007.99
2023-01-10T05:18:04.178Z,1008.00
2023-01-10T05:19:04.164Z,1008.05
2023-01-10T05:20:04.261Z,1008.02
2023-01-10T05:21:04.158Z,1008.05
2023-01-10T05:22:04.158Z,1008.09
2023-01-10T05:23:04.160Z,1008.08
2023-01-10T05:24:04.157Z,1008.11
2023-01-10T05:25:04.170Z,1008.10
2023-01-10T05:26:04.149Z,1008.15
2023-01-10T05:27:04.165Z,1008.14
2023-01-10T05:28:04.146Z,1008.16
2023-01-10T05:29:04.141Z,1008.18
2023-01-10T05:30:04.152Z,1008.19
2023-01-10T05:31:04.134Z,1008.27
2023-01-10T05:32:04.133Z,1008.27
2023-01-10T05:33:04.127Z,1008.28
2023-01-10T05:34:04.127Z,1008.34
2023-01-10T05:35:04.119Z,1008.37
2023-01-10T05:36:04.124Z,1008.33
2023-01-10T05:37:04.118Z,1008.39
2023-01-10T05:38:04.124Z,1008.43
2023-01-10T05:39:04.108Z,1008.45
2023-01-10T05:40:04.108Z,1008.42
2023-01-10T05:41:04.124Z,1008.47
2023-01-10T05:42:04.109Z,1008.45
2023-01-10T05:43:04.104Z,1008.46
2023-01-10T05:44:04.101Z,1008.51
2023-01-10T05:45:04.105Z,1008.51
2023-01-10T05:46:04.197Z,1008.49
2023-01-10T05:47:04.092Z,1008.53
2023-01-10T05:48:04.092Z,1008.56
2023-01-10T05:49:04.089Z,1008.57
2023-01-10T05:50:04.086Z,1008.61
2023-01-10T05:51:04.096Z,1008.61
2023-01-10T05:52:04.079Z,1008.58
2023-01-10T05:53:04.076Z,1008.62
2023-01-10T05:54:04.073Z,1008.61
2023-01-10T05:55:04.073Z,1008.67
2023-01-10T05:56:04.076Z,1008.64
2023-01-10T05:57:04.082Z,1008.62
2023-01-10T05:58:04.066Z,1008.64
2023-01-10T05:59:08.040Z,1008.65
2023-01-10T06:00:05.200Z,1008.71
2023-01-10T06:01:04.131Z,1008.73
2023-01-10T06:02:04.091Z,1008.71
2023-01-10T06:03:04.135Z,1008.72
2023-01-10T06:04:04.055Z,1008.77
2023-01-10T06:05:04.062Z,1008.74
2023-01-10T06:06:04.045Z,1008.79
2023-01-10T06:07:04.038Z,1008.79
2023-01-10T06:08:04.038Z,1008.88
2023-01-10T06:09:04.028Z,1008.82
2023-01-10T06:10:04.030Z,1008.90
2023-01-10T06:11:04.023Z,1008.94
2023-01-10T06:12:04.027Z,1008.95
2023-01-10T06:13:04.042Z,1009.02
2023-01-10T06:14:04.027Z,1009.01
2023-01-10T06:15:04.011Z,1009.10
2023-01-10T06:16:04.071Z,1009.09
2023-01-10T06:17:04.011Z,1009.14
2023-01-10T06:18:04.025Z,1009.18
2023-01-10T06:19:04.013Z,1009.16
2023-01-10T06:20:04.023Z,1009.22
2023-01-10T06:21:04.014Z,1009.24
2023-01-10T06:22:04.002Z,1009.28
2023-01-10T06:23:03.992Z,1009.31
2023-01-10T06:24:03.995Z,1009.30
2023-01-10T06:25:03.992Z,1009.31
2023-01-10T06:26:03.996Z,1009.33
2023-01-10T06:27:03.981Z,1009.36
2023-01-10T06:28:03.994Z,1009.36
2023-01-10T06:29:04.001Z,1009.39
2023-01-10T06:30:03.980Z,1009.42
2023-01-10T06:31:04.033Z,1009.43
2023-01-10T06:32:03.972Z,1009.49
2023-01-10T06:33:03.966Z,1009.50
2023-01-10T06:34:03.967Z,1009.51
2023-01-10T06:35:03.969Z,1009.51
2023-01-10T06:36:03.973Z,1009.50
2023-01-10T06:37:03.965Z,1009.54
2023-01-10T06:38:03.976Z,1009.54
2023-01-10T06:39:03.949Z,1009.56
2023-01-10T06:40:03.956Z,1009.57
2023-01-10T06:41:03.947Z,1009.56
2023-01-10T06:42:03.946Z,1009.59
2023-01-10T06:43:03.958Z,1009.60
2023-01-10T06:44:03.944Z,1009.63
2023-01-10T06:45:03.958Z,1009.65
2023-01-10T06:46:03.952Z,1009.65
2023-01-10T06:47:03.931Z,1009.66
2023-01-10T06:48:03.934Z,1009.67
2023-01-10T06:49:03.931Z,1009.66
2023-01-10T06:50:03.935Z,1009.72
2023-01-10T06:51:03.926Z,1009.74
2023-01-10T06:52:03.923Z,1009.72
2023-01-10T06:53:03.917Z,1009.78
2023-01-10T06:54:03.917Z,1009.77
2023-01-10T06:55:03.913Z,1009.74
2023-01-10T06:56:03.910Z,1009.82
2023-01-10T06:57:03.912Z,1009.83
2023-01-10T06:58:03.929Z,1009.84
2023-01-10T06:59:03.905Z,1009.87
2023-01-10T07:00:03.911Z,1009.88
2023-01-10T07:01:04.124Z,1009.90
2023-01-10T07:02:04.140Z,1009.96
2023-01-10T07:03:03.894Z,1009.93
2023-01-10T07:04:03.981Z,1009.97
2023-01-10T07:05:03.885Z,1009.95
2023-01-10T07:06:03.887Z,1010.00
2023-01-10T07:07:03.886Z,1010.04
2023-01-10T07:08:03.889Z,1010.02
2023-01-10T07:09:03.876Z,1010.06
2023-01-10T07:10:03.872Z,1010.03
2023-01-10T07:11:03.888Z,1010.09
2023-01-10T07:12:03.869Z,1010.07
2023-01-10T07:13:03.865Z,1010.10
2023-01-10T07:14:03.869Z,1010.06
2023-01-10T07:15:03.859Z,1010.10
2023-01-10T07:16:03.859Z,1010.17
2023-01-10T07:17:03.877Z,1010.14
2023-01-10T07:18:03.859Z,1010.20
2023-01-10T07:19:03.847Z,1010.19
2023-01-10T07:20:03.853Z,1010.24
2023-01-10T07:21:03.866Z,1010.25
2023-01-10T07:22:03.846Z,1010.32
2023-01-10T07:23:03.857Z,1010.31
2023-01-10T07:24:03.838Z,1010.38
2023-01-10T07:25:03.840Z,1010.38
2023-01-10T07:26:03.847Z,1010.43
2023-01-10T07:27:03.829Z,1010.43
2023-01-10T07:28:03.829Z,1010.42
2023-01-10T07:29:03.821Z,1010.46
2023-01-10T07:30:03.822Z,1010.44
2023-01-10T07:31:03.870Z,1010.51
2023-01-10T07:32:03.818Z,1010.53
2023-01-10T07:33:03.840Z,1010.53
2023-01-10T07:34:03.822Z,1010.57
2023-01-10T07:35:03.815Z,1010.59
2023-01-10T07:36:03.804Z,1010.61
2023-01-10T07:37:03.802Z,1010.64
2023-01-10T07:38:03.807Z,1010.64
2023-01-10T07:39:03.797Z,1010.69
2023-01-10T07:40:03.801Z,1010.73
2023-01-10T07:41:03.788Z,1010.74
2023-01-10T07:42:03.794Z,1010.75
2023-01-10T07:43:03.791Z,1010.78
2023-01-10T07:44:03.785Z,1010.76
2023-01-10T07:45:03.784Z,1010.81
2023-01-10T07:46:03.862Z,1010.82
2023-01-10T07:47:03.790Z,1010.81
2023-01-10T07:48:03.774Z,1010.87
2023-01-10T07:49:03.787Z,1010.88
2023-01-10T07:50:03.769Z,1010.88
2023-01-10T07:51:03.772Z,1010.92
2023-01-10T07:52:03.793Z,1010.90
2023-01-10T07:53:03.763Z,1010.93
2023-01-10T07:54:03.771Z,1010.99
2023-01-10T07:55:03.809Z,1011.00
2023-01-10T07:56:03.773Z,1011.01
2023-01-10T07:57:03.759Z,1011.00
2023-01-10T07:58:03.757Z,1011.03
2023-01-10T07:59:03.740Z,1011.03
2023-01-10T08:00:03.744Z,1011.05
2023-01-10T08:01:03.797Z,1011.05
2023-01-10T08:02:03.736Z,1011.06
2023-01-10T08:03:03.919Z,1011.10
2023-01-10T08:04:03.755Z,1011.12
2023-01-10T08:05:03.798Z,1011.12
2023-01-10T08:06:03.722Z,1011.11
2023-01-10T08:07:03.736Z,1011.17
2023-01-10T08:08:03.725Z,1011.19
2023-01-10T08:09:03.724Z,1011.19
2023-01-10T08:10:03.714Z,1011.21
2023-01-10T08:11:03.723Z,1011.26
2023-01-10T08:12:03.717Z,1011.29
2023-01-10T08:13:17.258Z,1011.30
2023-01-10T08:14:03.709Z,1011.34
2023-01-10T08:15:03.705Z,1011.33
2023-01-10T08:16:03.731Z,1011.39
2023-01-10T08:17:03.707Z,1011.36
2023-01-10T08:18:05.000Z,1011.35
2023-01-10T08:19:03.700Z,1011.43
2023-01-10T08:20:03.692Z,1011.42
2023-01-10T08:21:03.745Z,1011.44
2023-01-10T08:22:03.687Z,1011.49
2023-01-10T08:23:03.686Z,1011.49
2023-01-10T08:24:03.688Z,1011.49
2023-01-10T08:25:03.683Z,1011.50
2023-01-10T08:26:03.675Z,1011.50
2023-01-10T08:27:03.678Z,1011.54
2023-01-10T08:28:03.684Z,1011.54
2023-01-10T08:29:03.682Z,1011.56
2023-01-10T08:30:03.668Z,1011.55
2023-01-10T08:31:03.693Z,1011.55
2023-01-10T08:32:03.661Z,1011.57
2023-01-10T08:33:03.657Z,1011.57
2023-01-10T08:34:03.655Z,1011.60
2023-01-10T08:35:03.662Z,1011.60
2023-01-10T08:36:03.653Z,1011.60
2023-01-10T08:37:03.679Z,1011.59
2023-01-10T08:38:03.647Z,1011.63
2023-01-10T08:39:03.650Z,1011.65
2023-01-10T08:40:03.639Z,1011.66
2023-01-10T08:41:03.643Z,1011.69
2023-01-10T08:42:03.632Z,1011.64
2023-01-10T08:43:03.647Z,1011.68
2023-01-10T08:44:03.630Z,1011.71
2023-01-10T08:45:03.628Z,1011.77
2023-01-10T08:46:03.628Z,1011.82
2023-01-10T08:47:03.626Z,1011.77
2023-01-10T08:48:03.628Z,1011.77
2023-01-10T08:49:03.620Z,1011.81
2023-01-10T08:50:04.155Z,1011.82
2023-01-10T08:51:03.612Z,1011.85
2023-01-10T08:52:03.630Z,1011.80
2023-01-10T08:53:03.636Z,1011.81
2023-01-10T08:54:03.602Z,1011.82
2023-01-10T08:55:03.606Z,1011.82
2023-01-10T08:56:05.530Z,1011.84
2023-01-10T08:57:03.712Z,1011.86
2023-01-10T08:58:03.619Z,1011.91
2023-01-10T08:59:03.597Z,1011.86
2023-01-10T09:00:03.600Z,1011.87
2023-01-10T09:01:03.675Z,1011.86
2023-01-10T09:02:03.669Z,1011.82
2023-01-10T09:03:03.681Z,1011.87
2023-01-10T09:04:03.605Z,1011.88
2023-01-10T09:05:04.858Z,1011.85
2023-01-10T09:06:03.586Z,1011.85
2023-01-10T09:07:03.580Z,1011.90
2023-01-10T09:08:03.587Z,1011.90
2023-01-10T09:09:03.617Z,1011.95
2023-01-10T09:10:03.567Z,1011.96
2023-01-10T09:11:03.569Z,1012.01
2023-01-10T09:12:03.561Z,1012.06
2023-01-10T09:13:03.570Z,1012.10
2023-01-10T09:14:03.569Z,1012.08
2023-01-10T09:15:03.566Z,1012.13
2023-01-10T09:16:03.609Z,1012.17
2023-01-10T09:17:03.551Z,1012.23
2023-01-10T09:18:03.549Z,1012.25
2023-01-10T09:19:04.367Z,1012.28
2023-01-10T09:20:04.699Z,1012.18
2023-01-10T09:21:03.546Z,1012.21
2023-01-10T09:22:03.551Z,1012.30
2023-01-10T09:23:03.539Z,1012.35
2023-01-10T09:24:03.549Z,1012.35
2023-01-10T09:25:03.557Z,1012.29
2023-01-10T09:26:03.537Z,1012.36
2023-01-10T09:27:03.530Z,1012.36
2023-01-10T09:28:03.537Z,1012.45
2023-01-10T09:29:03.537Z,1012.49
2023-01-10T09:30:03.520Z,1012.56
2023-01-10T09:31:03.544Z,1012.57
2023-01-10T09:32:03.515Z,1012.59
2023-01-10T09:33:03.516Z,1012.64
2023-01-10T09:34:03.525Z,1012.56
2023-01-10T09:35:03.513Z,1012.46
2023-01-10T09:36:03.515Z,1012.46
2023-01-10T09:37:03.510Z,1012.52
2023-01-10T09:38:03.510Z,1012.48
2023-01-10T09:39:03.504Z,1012.47
2023-01-10T09:40:03.498Z,1012.45
2023-01-10T09:41:03.513Z,1012.48
2023-01-10T09:42:03.492Z,1012.54
2023-01-10T09:43:03.495Z,1012.51
2023-01-10T09:44:03.488Z,1012.53
2023-01-10T09:45:03.493Z,1012.56
2023-01-10T09:46:03.488Z,1012.52
2023-01-10T09:47:08.413Z,1012.55
2023-01-10T09:48:03.503Z,1012.54
2023-01-10T09:49:03.482Z,1012.56
2023-01-10T09:50:03.486Z,1012.55
2023-01-10T09:51:03.481Z,1012.51
2023-01-10T09:52:03.476Z,1012.51
2023-01-10T09:53:03.481Z,1012.50
2023-01-10T09:54:11.167Z,1012.59
2023-01-10T09:55:03.573Z,1012.58
2023-01-10T09:56:03.475Z,1012.61
2023-01-10T09:57:03.499Z,1012.58
2023-01-10T09:58:03.468Z,1012.60
2023-01-10T09:59:03.476Z,1012.66
2023-01-10T10:00:03.463Z,1012.66
2023-01-10T10:01:03.559Z,1012.64
2023-01-10T10:02:03.460Z,1012.69
2023-01-10T10:03:03.475Z,1012.73
2023-01-10T10:04:03.531Z,1012.67
2023-01-10T10:05:03.473Z,1012.72
2023-01-10T10:06:11.641Z,1012.67
2023-01-10T10:07:03.460Z,1012.68
2023-01-10T10:08:03.454Z,1012.62
2023-01-10T10:09:05.007Z,1012.71
2023-01-10T10:10:03.448Z,1012.69
2023-01-10T10:11:03.457Z,1012.66
2023-01-10T10:12:03.450Z,1012.75
2023-01-10T10:13:03.469Z,1012.73
2023-01-10T10:14:03.444Z,1012.74
2023-01-10T10:15:03.442Z,1012.77
2023-01-10T10:16:03.482Z,1012.74
2023-01-10T10:17:03.448Z,1012.70
2023-01-10T10:18:03.433Z,1012.72
2023-01-10T10:19:03.474Z,1012.70
2023-01-10T10:20:03.434Z,1012.71
2023-01-10T10:21:03.439Z,1012.76
2023-01-10T10:22:03.457Z,1012.84
2023-01-10T10:23:03.438Z,1012.89
2023-01-10T10:24:03.425Z,1012.83
2023-01-10T10:25:03.447Z,1012.83
2023-01-10T10:26:03.424Z,1012.79
2023-01-10T10:27:03.429Z,1012.80
2023-01-10T10:28:03.428Z,1012.80
2023-01-10T10:29:03.793Z,1012.86
2023-01-10T10:30:03.424Z,1012.80
2023-01-10T10:31:03.609Z,1012.77
2023-01-10T10:32:03.416Z,1012.75
2023-01-10T10:33:03.414Z,1012.74
2023-01-10T10:34:03.418Z,1012.76
2023-01-10T10:35:03.412Z,1012.74
2023-01-10T10:36:03.410Z,1012.79
2023-01-10T10:37:03.409Z,1012.77
2023-01-10T10:38:03.407Z,1012.83
2023-01-10T10:39:03.415Z,1012.81
2023-01-10T10:40:03.402Z,1012.82
2023-01-10T10:41:03.420Z,1012.82
2023-01-10T10:42:03.405Z,1012.80
2023-01-10T10:43:03.402Z,1012.87
2023-01-10T10:44:03.397Z,1012.91
2023-01-10T10:45:03.421Z,1012.92
2023-01-10T10:46:03.433Z,1012.93
2023-01-10T10:47:03.408Z,1012.91
2023-01-10T10:48:03.396Z,1012.92
2023-01-10T10:49:03.391Z,1013.04
2023-01-10T10:50:03.398Z,1013.08
2023-01-10T10:51:03.405Z,1013.06
2023-01-10T10:52:03.384Z,1013.03
2023-01-10T10:53:03.389Z,1013.04
2023-01-10T10:54:03.386Z,1013.08
2023-01-10T10:55:03.396Z,1013.10
2023-01-10T10:56:03.383Z,1013.08
2023-01-10T10:57:03.392Z,1013.11
2023-01-10T10:58:03.378Z,1013.03
2023-01-10T10:59:03.390Z,1013.04
2023-01-10T11:00:03.379Z,1013.03
2023-01-10T11:01:03.531Z,1013.07
2023-01-10T11:02:03.572Z,1013.11
2023-01-10T11:03:03.404Z,1013.13
2023-01-10T11:04:03.371Z,1013.11
2023-01-10T11:05:03.441Z,1013.17
2023-01-10T11:06:03.372Z,1013.17
2023-01-10T11:07:03.368Z,1013.17
2023-01-10T11:08:03.367Z,1013.19
2023-01-10T11:09:03.363Z,1013.22
2023-01-10T11:10:03.359Z,1013.28
2023-01-10T11:11:03.363Z,1013.28
2023-01-10T11:12:03.379Z,1013.34
2023-01-10T11:13:03.363Z,1013.35
2023-01-10T11:14:03.353Z,1013.32
2023-01-10T11:15:03.369Z,1013.29
2023-01-10T11:16:03.413Z,1013.34
2023-01-10T11:17:03.379Z,1013.34
2023-01-10T11:18:03.347Z,1013.30
2023-01-10T11:19:03.351Z,1013.33
2023-01-10T11:20:03.342Z,1013.29
2023-01-10T11:21:03.347Z,1013.36
2023-01-10T11:22:03.347Z,1013.34
2023-01-10T11:23:03.345Z,1013.29
2023-01-10T11:24:03.337Z,1013.28
2023-01-10T11:25:03.338Z,1013.32
2023-01-10T11:26:03.334Z,1013.30
2023-01-10T11:27:03.357Z,1013.28
2023-01-10T11:28:03.344Z,1013.23
2023-01-10T11:29:03.339Z,1013.23
2023-01-10T11:30:03.372Z,1013.25
2023-01-10T11:31:03.338Z,1013.19
2023-01-10T11:32:03.367Z,1013.22
2023-01-10T11:33:03.347Z,1013.21
2023-01-10T11:34:03.321Z,1013.22
2023-01-10T11:35:03.344Z,1013.18
2023-01-10T11:36:03.323Z,1013.24
2023-01-10T11:37:03.329Z,1013.21
2023-01-10T11:38:03.312Z,1013.20
2023-01-10T11:39:03.320Z,1013.23
2023-01-10T11:40:03.311Z,1013.27
2023-01-10T11:41:03.320Z,1013.26
2023-01-10T11:42:03.314Z,1013.27
2023-01-10T11:43:03.313Z,1013.29
2023-01-10T11:44:03.311Z,1013.31
2023-01-10T11:45:03.313Z,1013.27
2023-01-10T11:46:03.376Z,1013.32
2023-01-10T11:47:03.306Z,1013.25
2023-01-10T11:48:03.301Z,1013.24
2023-01-10T11:49:07.275Z,1013.24
2023-01-10T11:50:03.300Z,1013.22
2023-01-10T11:51:03.299Z,1013.23
2023-01-10T11:52:03.297Z,1013.23
2023-01-10T11:53:03.307Z,1013.27
2023-01-10T11:54:03.303Z,1013.36
2023-01-10T11:55:03.297Z,1013.27
2023-01-10T11:56:03.289Z,1013.33
2023-01-10T11:57:03.291Z,1013.40
2023-01-10T11:58:03.291Z,1013.41
2023-01-10T11:59:03.289Z,1013.39
2023-01-10T12:00:03.283Z,1013.43
2023-01-10T12:01:03.390Z,1013.48
2023-01-10T12:02:03.347Z,1013.45
2023-01-10T12:03:03.311Z,1013.43
2023-01-10T12:04:03.311Z,1013.39
2023-01-10T12:05:03.372Z,1013.42